Flight Track Log - Related Links

Times and Time Zones

All times are in EDT time to prevent confusion due to time zone crossing. See the N373LD flight status page for this flight to view local times or setup timezone preferences in your user account.

Time Position Orientation Groundspeed Altitude Reporting Facility
EDT Latitude Longitude Course Direction KTS MPH feet Rate Location/Type
Tue 09:37:17 AM 29.2975 -98.4358 194° South 124 143 2,300  Level Houston Center
Tue 09:38:06 AM 29.2689 -98.4442 194° South 172 198 2,900 1,145 Climbing Houston Center
Tue 09:39:07 AM 29.2781 -98.4981 281° West 182 209 4,400 1,619 Climbing Houston Center
Tue 09:39:09 AM 29.2783 -98.5019 275° West 176 203 4,600 1,300 Climbing Houston Center
Tue 09:40:07 AM 29.3028 -98.5383 308° West 167 192 5,700 1,161 Climbing Houston Center
Tue 09:40:11 AM 29.3061 -98.5389 352° North 168 193 5,800 1,475 Climbing Houston Center
Tue 09:41:08 AM 29.3469 -98.5617 334° Northwest 168 193 7,200 1,452 Climbing Houston Center
Tue 09:41:13 AM 29.3517 -98.5639 338° Northwest 171 197 7,300 1,475 Climbing Houston Center
Tue 09:42:09 AM 29.3906 -98.5806 340° North 167 192 8,700 1,452 Climbing Houston Center
Tue 09:42:15 AM 29.3953 -98.5825 340° North 170 196 8,800 984 Climbing Houston Center
Tue 09:43:10 AM 29.4367 -98.6014 338° Northwest 173 199 9,700 984 Climbing Houston Center
Tue 09:43:16 AM 29.4414 -98.6019 354° North 177 204 9,800 885 Climbing Houston Center
Tue 09:44:11 AM 29.4869 -98.6242 337° Northwest 201 231 10,600 1,065 Climbing Houston Center
Tue 09:44:18 AM 29.4961 -98.6264 348° North 195 224 10,900 1,091 Climbing Houston Center
Tue 09:45:17 AM 29.5372 -98.6469 336° Northwest 180 207 11,800 871 Climbing Houston Center
Tue 09:45:20 AM 29.5422 -98.6478 352° North 181 208 11,800 185 Level Houston Center
Tue 09:46:22 AM 29.5950 -98.6708 339° North 200 230 12,000 98 Climbing Houston Center
Tue 09:47:23 AM 29.6558 -98.6978 339° North 213 245 12,000  Level Houston Center
Tue 09:48:25 AM 29.7117 -98.7231 339° North 214 246 12,000  Level Houston Center
Tue 09:49:27 AM 29.7678 -98.7481 339° North 214 246 12,000 968 Level Houston Center
Tue 09:50:29 AM 29.8194 -98.7703 340° North 183 211 14,000 1,610 Climbing Houston Center
Tue 09:51:30 AM 29.8639 -98.7886 340° North 171 197 15,300 1,220 Climbing Houston Center
Tue 09:52:32 AM 29.9081 -98.8078 339° North 170 196 16,500 1,355 Climbing Houston Center
Tue 09:53:34 AM 29.9569 -98.8278 340° North 172 198 18,100 1,355 Climbing Houston Center
Tue 09:54:36 AM 30.0025 -98.8467 340° North 173 199 19,300 1,258 Climbing Houston Center
Tue 09:55:38 AM 30.0522 -98.8675 340° North 174 200 20,700 1,317 Climbing Houston Center
Tue 09:56:39 AM 30.0989 -98.8872 340° North 175 201 22,000 1,073 Climbing Houston Center
Tue 09:57:41 AM 30.1475 -98.9072 340° North 183 211 22,900 871 Climbing Houston Center
Tue 09:58:43 AM 30.2053 -98.9303 341° North 198 228 23,800 532 Climbing Houston Center
Tue 09:59:45 AM 30.2625 -98.9547 340° North 214 246 24,000 97 Climbing Houston Center
Tue 10:00:47 AM 30.3153 -98.9781 339° North 230 265 24,000  Level Houston Center
Tue 10:01:49 AM 30.3906 -99.0092 340° North 235 270 24,000  Level Houston Center
Tue 10:02:51 AM 30.4542 -99.0367 340° North 238 274 24,000  Level Houston Center
Tue 10:03:52 AM 30.5167 -99.0611 341° North 239 275 24,000  Level Houston Center
Tue 10:04:54 AM 30.5792 -99.0875 340° North 239 275 24,000  Level Houston Center
Tue 10:05:56 AM 30.6417 -99.1161 339° North 239 275 24,000  Level Houston Center
Tue 10:06:58 AM 30.7033 -99.1408 341° North 239 275 24,000  Level Houston Center
Tue 10:08:00 AM 30.7778 -99.1725 340° North 238 274 24,000  Level Houston Center
Tue 10:09:01 AM 30.8397 -99.1986 340° North 238 274 24,000  Level Houston Center
Tue 10:10:03 AM 30.9022 -99.2253 340° North 238 274 24,000  Level Houston Center
Tue 10:11:05 AM 30.9650 -99.2531 339° North 238 274 24,000  Level Houston Center
Tue 10:12:07 AM 31.0261 -99.2789 340° North 238 274 24,000  Level Houston Center
Tue 10:13:09 AM 31.0894 -99.3053 340° North 239 275 24,000  Level Houston Center
Tue 10:14:11 AM 31.1656 -99.3389 339° North 240 276 24,000  Level Houston Center
Tue 10:15:13 AM 31.2286 -99.3658 340° North 242 278 24,000  Level Houston Center
Tue 10:16:15 AM 31.2922 -99.3928 340° North 242 278 24,000  Level Houston Center
Tue 10:17:17 AM 31.3547 -99.4200 340° North 242 278 24,000  Level Houston Center
Tue 10:18:19 AM 31.4189 -99.4478 340° North 242 278 24,000  Level Houston Center
Tue 10:19:21 AM 31.4819 -99.4742 340° North 242 278 24,000  Level Houston Center
Tue 10:20:23 AM 31.5581 -99.5081 339° North 242 278 24,000  Level Houston Center
Tue 10:21:25 AM 31.6222 -99.5361 340° North 245 282 24,000  Level Houston Center
Tue 10:22:27 AM 31.6853 -99.5628 340° North 244 281 24,000  Level Houston Center
Tue 10:23:29 AM 31.7489 -99.5900 340° North 244 281 24,000  Level Houston Center
Tue 10:23:59 AM 31.7822 -99.6050 339° North 243 280 24,000  Level Fort Worth Center
Tue 10:25:01 AM 31.8467 -99.6342 339° North 243 280 24,000  Level Fort Worth Center
Tue 10:26:03 AM 31.9108 -99.6608 341° North 243 280 24,000  Level Fort Worth Center
Tue 10:27:05 AM 31.9744 -99.6878 340° North 243 280 24,000  Level Fort Worth Center
Tue 10:28:07 AM 32.0531 -99.7222 340° North 246 283 24,000  Level Fort Worth Center
Tue 10:29:09 AM 32.1161 -99.7497 340° North 245 282 24,000  Level Fort Worth Center
Tue 10:30:11 AM 32.1811 -99.7792 339° North 246 283 24,000  Level Fort Worth Center
Tue 10:31:13 AM 32.2453 -99.8072 340° North 246 283 24,000  Level Fort Worth Center
Tue 10:32:16 AM 32.3097 -99.8353 340° North 246 283 24,000  Level Fort Worth Center
Tue 10:33:18 AM 32.3744 -99.8647 339° North 246 283 24,000  Level Fort Worth Center
Tue 10:34:20 AM 32.4528 -99.8992 340° North 247 284 24,000  Level Fort Worth Center
Tue 10:35:22 AM 32.5175 -99.9272 340° North 247 284 24,000  Level Fort Worth Center
Tue 10:36:24 AM 32.5817 -99.9567 339° North 247 284 24,000  Level Fort Worth Center
Tue 10:37:26 AM 32.6481 -99.9853 340° North 247 284 24,000  Level Fort Worth Center
Tue 10:38:28 AM 32.7136 -100.0150 339° North 247 284 24,000  Level Fort Worth Center
Tue 10:39:30 AM 32.7786 -100.0433 340° North 246 283 24,000  Level Fort Worth Center
Tue 10:40:32 AM 32.8444 -100.0722 340° North 247 284 24,000  Level Fort Worth Center
Tue 10:41:35 AM 32.9092 -100.1011 339° North 247 284 24,000  Level Fort Worth Center
Tue 10:42:37 AM 32.9747 -100.1306 339° North 248 285 24,000  Level Fort Worth Center
Tue 10:43:39 AM 33.0531 -100.1664 339° North 248 285 24,000  Level Fort Worth Center
Tue 10:44:41 AM 33.1247 -100.1975 340° North 249 287 24,000  Level Fort Worth Center
Tue 10:45:43 AM 33.1861 -100.2247 340° North 251 289 24,000  Level Fort Worth Center
Tue 10:46:45 AM 33.2603 -100.2567 340° North 252 290 24,000  Level Fort Worth Center
Tue 10:47:47 AM 33.3256 -100.2861 339° North 252 290 24,000  Level Fort Worth Center
Tue 10:48:49 AM 33.3839 -100.3142 338° Northwest 252 290 24,000  Level Fort Worth Center
Tue 10:49:52 AM 33.4575 -100.3453 341° North 252 290 24,000  Level Fort Worth Center
Tue 10:50:54 AM 33.5292 -100.3792 338° Northwest 252 290 24,000  Level Fort Worth Center
Tue 10:51:56 AM 33.5936 -100.4078 340° North 251 289 24,000  Level Fort Worth Center
Tue 10:52:58 AM 33.6656 -100.4378 341° North 251 289 24,000  Level Fort Worth Center
Tue 10:54:00 AM 33.7236 -100.4658 338° Northwest 250 288 24,000  Level Fort Worth Center
Tue 10:55:02 AM 33.7883 -100.4961 339° North 250 288 24,000  Level Fort Worth Center
Tue 10:56:04 AM 33.8661 -100.5306 340° North 251 289 24,000  Level Fort Worth Center
Tue 10:57:06 AM 33.9317 -100.5578 341° North 250 288 24,000 -48 Level Fort Worth Center
Tue 10:58:08 AM 33.9953 -100.5892 338° Northwest 249 287 23,900 -290 Descending Fort Worth Center
Tue 10:59:10 AM 34.0667 -100.6219 339° North 250 288 23,400 -480 Descending Fort Worth Center
Tue 11:00:13 AM 34.1308 -100.6519 339° North 250 288 22,900 -480 Descending Fort Worth Center
Tue 11:01:15 AM 34.1956 -100.6794 341° North 250 288 22,400 -484 Descending Fort Worth Center
Tue 11:02:17 AM 34.2594 -100.7108 338° Northwest 249 287 21,900 -484 Descending Fort Worth Center
Tue 11:03:19 AM 34.3225 -100.7403 339° North 249 287 21,400 -532 Descending Fort Worth Center
Tue 11:04:21 AM 34.4003 -100.7764 339° North 248 285 20,800 -532 Descending Fort Worth Center
Tue 11:05:23 AM 34.4631 -100.8039 340° North 246 283 20,300 -387 Descending Fort Worth Center
Tue 11:06:25 AM 34.5250 -100.8336 338° Northwest 244 281 20,000 -145 Descending Fort Worth Center
Tue 11:07:27 AM 34.5842 -100.8614 339° North 233 268 20,000 -968 Level Fort Worth Center
Tue 11:08:29 AM 34.6406 -100.8889 338° Northwest 223 257 18,000 -2,016 Descending Fort Worth Center
Tue 11:09:32 AM 34.7064 -100.9183 340° North 214 246 15,800 -1,296 Descending Fort Worth Center
Tue 11:10:34 AM 34.7631 -100.9461 338° Northwest 215 247 15,300 -435 Descending Fort Worth Center
Tue 11:11:36 AM 34.8222 -100.9750 338° Northwest 222 255 14,900 -484 Descending Fort Worth Center
Tue 11:12:38 AM 34.8825 -101.0036 339° North 228 262 14,300 -484 Descending Fort Worth Center
Tue 11:13:40 AM 34.9383 -101.0294 339° North 222 255 13,900 -435 Descending Fort Worth Center
Tue 11:14:42 AM 34.9942 -101.0553 339° North 219 252 13,400 -532 Descending Fort Worth Center
Tue 11:15:44 AM 35.0631 -101.0889 338° Northwest 219 252 12,800 -532 Descending Fort Worth Center
Tue 11:16:46 AM 35.1183 -101.1150 339° North 219 252 12,300 -480 Descending Fort Worth Center
Tue 11:17:49 AM 35.1744 -101.1422 338° Northwest 218 251 11,800 -493 Descending Fort Worth Center
Tue 11:19:00 AM 35.2408 -101.1733 339° North 219 252 11,200 -496 Descending Albuquerque Center
Tue 11:20:02 AM 35.2972 -101.2000 339° North 218 251 10,700 -484 Descending Albuquerque Center
Tue 11:21:04 AM 35.3542 -101.2275 339° North 218 251 10,200 -484 Descending Albuquerque Center
Tue 11:22:06 AM 35.4217 -101.2594 339° North 218 251 9,700 -387 Descending Albuquerque Center
Tue 11:23:08 AM 35.4700 -101.2828 339° North 219 252 9,400 -290 Descending Albuquerque Center

Login

Don't have an account? Register now (free) for customized features, flight alerts, and more!